Time;durP1;ratioP1;P1;durP2;ratioP2;P2;SDS_P1;SDS_P2;PMS_P1;PMS_P2;Temp;Humidity;BMP_temperature;BMP_pressure;BME280_temperature;BME280_humidity;BME280_pressure;Samples;Min_cycle;Max_cycle;Signal;HPM_P1;HPM_P2
2021/12/28 00:01:19;;;;;;;27.45;3.90;;;;;;;;;;4998227;28;20022;-83
2021/12/28 00:03:45;;;;;;;33.78;5.65;;;;;;;;;;4996721;28;20026;-84
2021/12/28 00:06:12;;;;;;;33.72;4.90;;;;;;;;;;4996471;28;20422;-83
2021/12/28 00:08:38;;;;;;;27.98;5.55;;;;;;;;;;4998441;28;20540;-82
2021/12/28 00:11:05;;;;;;;42.13;5.07;;;;;;;;;;4996370;28;20052;-83
2021/12/28 00:13:33;;;;;;;44.40;6.20;;;;;;;;;;4997728;28;20026;-82
2021/12/28 00:19:17;;;;;;;36.15;4.78;;;;;;;;;;4997906;28;20034;-82
2021/12/28 00:27:33;;;;;;;18.63;4.15;;;;;;;;;;4978392;28;20046;-81
2021/12/28 00:36:23;;;;;;;27.25;5.35;;;;;;;;;;4976929;28;20042;-84
2021/12/28 00:38:49;;;;;;;28.08;3.88;;;;;;;;;;4974861;28;20055;-83
2021/12/28 00:41:15;;;;;;;37.65;5.55;;;;;;;;;;4976189;28;20092;-84
2021/12/28 00:46:55;;;;;;;21.73;4.13;;;;;;;;;;4992402;28;20038;-83
2021/12/28 00:53:04;;;;;;;30.85;4.63;;;;;;;;;;4985313;23;20101;-84
2021/12/28 00:55:33;;;;;;;31.48;3.63;;;;;;;;;;4974213;28;20031;-83
2021/12/28 01:04:24;;;;;;;18.60;3.63;;;;;;;;;;4928868;29;20052;-83
2021/12/28 01:06:50;;;;;;;23.17;3.60;;;;;;;;;;4936392;29;20032;-86
2021/12/28 01:12:21;;;;;;;28.40;3.50;;;;;;;;;;5009006;22;20196;-84
2021/12/28 01:20:56;;;;;;;22.63;4.30;;;;;;;;;;4997891;28;20052;-83
2021/12/28 01:26:26;;;;;;;21.52;3.28;;;;;;;;;;5078802;23;20615;-83
2021/12/28 01:28:52;;;;;;;16.20;3.20;;;;;;;;;;4996595;28;20486;-85
2021/12/28 01:31:18;;;;;;;24.42;3.35;;;;;;;;;;4996052;28;20061;-83
2021/12/28 01:33:44;;;;;;;27.35;4.93;;;;;;;;;;4996120;28;20109;-84
2021/12/28 01:36:10;;;;;;;24.42;3.55;;;;;;;;;;4994284;28;20038;-83
2021/12/28 01:39:16;;;;;;;21.30;3.58;;;;;;;;;;4996007;28;20030;-84
2021/12/28 01:41:41;;;;;;;20.10;3.35;;;;;;;;;;4995971;28;20026;-83
2021/12/28 01:47:12;;;;;;;18.02;4.07;;;;;;;;;;4996744;28;20028;-83
2021/12/28 01:55:18;;;;;;;22.17;3.70;;;;;;;;;;5963384;23;20325;-82
2021/12/28 02:04:26;;;;;;;23.40;3.65;;;;;;;;;;4975351;28;20347;-83
2021/12/28 02:06:54;;;;;;;27.48;3.17;;;;;;;;;;4976208;28;20031;-82
2021/12/28 02:09:20;;;;;;;26.48;4.47;;;;;;;;;;4975371;28;20041;-85
2021/12/28 02:11:46;;;;;;;20.27;3.97;;;;;;;;;;4976084;28;20066;-84
2021/12/28 02:14:13;;;;;;;18.65;3.83;;;;;;;;;;4976777;28;20105;-83
2021/12/28 02:16:40;;;;;;;18.45;3.08;;;;;;;;;;4974452;28;20034;-82
2021/12/28 02:19:07;;;;;;;24.35;4.13;;;;;;;;;;4975232;28;20057;-83
2021/12/28 02:21:34;;;;;;;18.52;3.88;;;;;;;;;;4975871;28;20027;-83
2021/12/28 02:24:00;;;;;;;18.33;3.65;;;;;;;;;;4974352;28;20030;-82
2021/12/28 02:26:26;;;;;;;21.80;4.40;;;;;;;;;;4979203;28;20026;-82
2021/12/28 02:28:53;;;;;;;14.43;3.00;;;;;;;;;;4990553;28;20042;-83
2021/12/28 02:31:19;;;;;;;15.52;3.22;;;;;;;;;;5000759;28;20027;-83
2021/12/28 02:33:46;;;;;;;14.15;3.35;;;;;;;;;;5001039;28;20070;-83
2021/12/28 02:36:12;;;;;;;21.65;4.05;;;;;;;;;;4989605;28;20031;-84
2021/12/28 02:38:38;;;;;;;16.08;3.40;;;;;;;;;;4981733;28;20069;-83
2021/12/28 02:41:05;;;;;;;22.48;4.53;;;;;;;;;;4980776;28;20070;-82
2021/12/28 02:43:31;;;;;;;16.40;4.03;;;;;;;;;;4980608;28;20097;-84
2021/12/28 02:45:59;;;;;;;18.80;3.22;;;;;;;;;;4980578;28;20086;-83
2021/12/28 02:48:26;;;;;;;23.27;4.05;;;;;;;;;;4980937;28;20046;-83
2021/12/28 02:50:54;;;;;;;25.90;4.75;;;;;;;;;;4978531;28;20394;-81
2021/12/28 02:53:21;;;;;;;19.60;4.30;;;;;;;;;;4981161;28;20142;-83
2021/12/28 02:55:49;;;;;;;16.67;3.47;;;;;;;;;;4981828;28;20038;-83
2021/12/28 02:58:29;;;;;;;15.25;3.97;;;;;;;;;;4979568;28;20367;-83
2021/12/28 03:01:03;;;;;;;16.58;4.03;;;;;;;;;;4980858;28;20023;-83
2021/12/28 03:03:30;;;;;;;17.42;4.03;;;;;;;;;;4979768;28;20026;-83
2021/12/28 03:05:58;;;;;;;14.20;3.85;;;;;;;;;;4991744;28;20050;-82
2021/12/28 03:08:25;;;;;;;15.20;3.47;;;;;;;;;;4992066;28;20110;-82
2021/12/28 03:10:51;;;;;;;14.02;3.90;;;;;;;;;;4991504;28;20030;-81
2021/12/28 03:13:38;;;;;;;19.05;4.32;;;;;;;;;;4992006;28;20214;-83
2021/12/28 03:16:04;;;;;;;10.65;3.38;;;;;;;;;;4993591;28;20035;-83
2021/12/28 03:18:30;;;;;;;9.60;3.58;;;;;;;;;;4997921;28;20034;-81
2021/12/28 03:20:57;;;;;;;13.88;3.25;;;;;;;;;;4995305;28;20037;-84
2021/12/28 03:23:24;;;;;;;11.77;3.63;;;;;;;;;;4991763;28;20030;-82
2021/12/28 03:25:50;;;;;;;16.17;3.28;;;;;;;;;;4991405;28;20026;-84
2021/12/28 03:28:24;;;;;;;10.30;3.67;;;;;;;;;;4992169;28;20053;-82
2021/12/28 03:30:52;;;;;;;15.82;4.13;;;;;;;;;;4991586;28;20057;-83
2021/12/28 03:33:19;;;;;;;14.18;3.83;;;;;;;;;;4991359;28;20030;-84
2021/12/28 03:35:45;;;;;;;17.65;3.72;;;;;;;;;;4988905;28;20027;-81
2021/12/28 03:38:12;;;;;;;13.07;3.72;;;;;;;;;;4991804;28;20058;-83
2021/12/28 03:40:39;;;;;;;9.85;3.40;;;;;;;;;;4991064;28;20045;-84
2021/12/28 03:43:05;;;;;;;17.50;4.40;;;;;;;;;;4990350;28;20126;-82
2021/12/28 03:45:31;;;;;;;8.95;3.25;;;;;;;;;;4989742;28;20086;-83
2021/12/28 03:47:57;;;;;;;12.13;3.70;;;;;;;;;;4991500;28;20099;-82
2021/12/28 03:50:25;;;;;;;10.38;3.13;;;;;;;;;;4992181;28;20027;-82
2021/12/28 03:52:52;;;;;;;13.48;3.50;;;;;;;;;;4991739;28;20023;-82
2021/12/28 03:55:18;;;;;;;15.32;3.20;;;;;;;;;;4990229;28;20054;-85
2021/12/28 03:57:44;;;;;;;11.30;3.13;;;;;;;;;;4991987;28;20034;-85
2021/12/28 04:00:12;;;;;;;8.55;2.83;;;;;;;;;;4991888;28;20015;-82
2021/12/28 04:02:38;;;;;;;12.70;3.25;;;;;;;;;;4991670;28;20169;-82
2021/12/28 04:05:04;;;;;;;11.43;3.20;;;;;;;;;;4992110;28;20078;-82
2021/12/28 04:07:30;;;;;;;11.75;2.90;;;;;;;;;;4990861;28;20376;-82
2021/12/28 04:10:00;;;;;;;5.75;2.30;;;;;;;;;;4992135;28;20025;-82
2021/12/28 04:12:27;;;;;;;13.32;2.60;;;;;;;;;;4992860;28;20533;-83
2021/12/28 04:14:53;;;;;;;7.10;2.60;;;;;;;;;;4994556;28;20070;-83
2021/12/28 04:17:19;;;;;;;5.78;2.22;;;;;;;;;;4988833;28;20035;-83
2021/12/28 04:19:45;;;;;;;7.93;2.95;;;;;;;;;;4989039;28;20023;-83
2021/12/28 04:22:11;;;;;;;8.18;2.83;;;;;;;;;;4991820;28;20042;-82
2021/12/28 04:24:37;;;;;;;8.55;2.20;;;;;;;;;;4992054;28;20034;-84
2021/12/28 04:27:03;;;;;;;8.00;2.88;;;;;;;;;;4991138;28;20087;-82
2021/12/28 04:29:29;;;;;;;7.22;2.25;;;;;;;;;;4990892;28;20027;-83
2021/12/28 04:31:55;;;;;;;5.78;2.63;;;;;;;;;;4992286;28;20041;-82
2021/12/28 04:34:21;;;;;;;6.60;2.30;;;;;;;;;;4990074;28;20084;-83
2021/12/28 04:36:48;;;;;;;9.75;2.22;;;;;;;;;;4990253;28;20031;-82
2021/12/28 04:39:14;;;;;;;5.15;2.55;;;;;;;;;;4990539;28;20027;-83
2021/12/28 04:41:40;;;;;;;3.70;1.80;;;;;;;;;;4989062;28;20340;-82
2021/12/28 04:44:06;;;;;;;4.28;1.85;;;;;;;;;;4990632;28;20022;-82
2021/12/28 04:46:33;;;;;;;8.20;2.08;;;;;;;;;;4990683;28;20043;-82
2021/12/28 04:48:59;;;;;;;4.68;1.92;;;;;;;;;;4990976;28;20023;-82
2021/12/28 04:51:25;;;;;;;9.15;2.58;;;;;;;;;;4982280;28;20031;-83
2021/12/28 04:53:54;;;;;;;3.67;1.92;;;;;;;;;;4979853;28;20046;-81
2021/12/28 04:56:20;;;;;;;5.13;1.35;;;;;;;;;;4978253;28;20085;-84
2021/12/28 04:58:46;;;;;;;7.63;2.15;;;;;;;;;;4978837;28;20706;-83
2021/12/28 05:01:12;;;;;;;8.15;2.03;;;;;;;;;;4980480;28;20019;-84
2021/12/28 05:03:38;;;;;;;4.13;1.73;;;;;;;;;;4980353;28;20604;-83
2021/12/28 05:06:04;;;;;;;8.13;2.10;;;;;;;;;;4979551;28;20026;-83
2021/12/28 05:08:30;;;;;;;5.45;2.55;;;;;;;;;;4979199;28;20556;-83
2021/12/28 05:10:56;;;;;;;6.28;1.88;;;;;;;;;;4977472;28;20038;-83
2021/12/28 05:13:23;;;;;;;11.05;1.70;;;;;;;;;;4978921;28;20034;-82
2021/12/28 05:15:50;;;;;;;4.72;1.77;;;;;;;;;;4979555;28;20027;-83
2021/12/28 05:18:16;;;;;;;6.82;2.42;;;;;;;;;;4977189;28;20586;-84
2021/12/28 05:20:42;;;;;;;5.78;2.13;;;;;;;;;;4978966;28;20388;-83
2021/12/28 05:23:08;;;;;;;7.78;1.77;;;;;;;;;;4980244;28;20101;-83
2021/12/28 05:25:34;;;;;;;4.10;1.50;;;;;;;;;;4995535;28;20019;-83
2021/12/28 05:28:01;;;;;;;4.38;1.40;;;;;;;;;;4994813;28;20026;-83
2021/12/28 05:30:27;;;;;;;1.98;1.23;;;;;;;;;;4984576;28;20101;-83
2021/12/28 05:32:53;;;;;;;6.47;1.17;;;;;;;;;;4978576;28;20039;-86
2021/12/28 05:35:20;;;;;;;4.10;1.35;;;;;;;;;;4978773;28;20113;-83
2021/12/28 05:37:46;;;;;;;1.95;1.10;;;;;;;;;;4978271;28;20027;-83
2021/12/28 05:40:14;;;;;;;3.88;0.90;;;;;;;;;;4977728;28;20490;-83
2021/12/28 05:42:40;;;;;;;3.08;1.10;;;;;;;;;;4978148;28;20166;-83
2021/12/28 05:45:06;;;;;;;0.98;0.80;;;;;;;;;;4978503;28;20030;-83
2021/12/28 05:47:32;;;;;;;2.25;0.98;;;;;;;;;;4976982;28;20050;-83
2021/12/28 05:49:58;;;;;;;2.78;1.20;;;;;;;;;;4977368;28;20033;-84
2021/12/28 05:52:24;;;;;;;1.80;1.10;;;;;;;;;;4978052;28;20031;-84
2021/12/28 05:54:50;;;;;;;3.22;1.25;;;;;;;;;;4978401;28;20101;-85
2021/12/28 05:57:17;;;;;;;2.88;0.90;;;;;;;;;;4978050;28;20042;-85
2021/12/28 05:59:43;;;;;;;5.03;1.20;;;;;;;;;;4978598;28;20027;-82
2021/12/28 06:02:09;;;;;;;4.32;1.23;;;;;;;;;;4981414;28;20086;-83
2021/12/28 06:04:35;;;;;;;3.60;1.35;;;;;;;;;;4981310;28;20038;-83
2021/12/28 06:07:02;;;;;;;2.17;0.80;;;;;;;;;;4981543;28;20034;-83
2021/12/28 06:09:28;;;;;;;3.00;1.00;;;;;;;;;;4981815;28;20027;-84
2021/12/28 06:11:54;;;;;;;1.90;1.08;;;;;;;;;;4981661;28;20091;-83
2021/12/28 06:14:20;;;;;;;3.58;1.10;;;;;;;;;;4982020;28;20031;-83
2021/12/28 06:16:46;;;;;;;3.97;1.75;;;;;;;;;;4981671;28;20065;-84
2021/12/28 06:19:12;;;;;;;2.03;1.30;;;;;;;;;;4981277;28;20023;-83
2021/12/28 06:21:38;;;;;;;4.45;1.33;;;;;;;;;;4981777;28;20034;-84
2021/12/28 06:24:05;;;;;;;3.65;1.42;;;;;;;;;;4981703;28;20029;-83
2021/12/28 06:26:32;;;;;;;6.45;1.60;;;;;;;;;;4979971;28;20038;-85
2021/12/28 06:28:58;;;;;;;6.40;1.80;;;;;;;;;;4980663;28;20027;-83
2021/12/28 06:31:28;;;;;;;2.50;1.58;;;;;;;;;;4980831;28;20045;-83
2021/12/28 06:33:54;;;;;;;6.70;1.63;;;;;;;;;;4981167;28;20050;-82
2021/12/28 06:36:20;;;;;;;4.70;1.92;;;;;;;;;;4979757;28;20027;-83
2021/12/28 06:38:46;;;;;;;7.85;1.83;;;;;;;;;;4983871;28;20026;-83
2021/12/28 06:41:12;;;;;;;6.55;1.98;;;;;;;;;;4982253;28;20069;-83
2021/12/28 06:43:38;;;;;;;3.72;1.65;;;;;;;;;;4981487;28;20451;-84
2021/12/28 06:46:04;;;;;;;4.65;1.70;;;;;;;;;;4979951;28;20034;-83
2021/12/28 06:48:30;;;;;;;3.75;1.70;;;;;;;;;;4981129;28;20030;-83
2021/12/28 06:50:56;;;;;;;1.70;1.58;;;;;;;;;;4981331;28;20030;-83
2021/12/28 06:53:22;;;;;;;2.05;1.25;;;;;;;;;;4981085;28;20089;-83
2021/12/28 06:55:48;;;;;;;4.82;1.60;;;;;;;;;;4980707;28;20114;-84
2021/12/28 06:58:14;;;;;;;2.53;1.23;;;;;;;;;;4980523;28;20042;-83
2021/12/28 07:00:41;;;;;;;4.57;1.30;;;;;;;;;;4980483;28;20038;-84
2021/12/28 07:03:07;;;;;;;6.45;1.25;;;;;;;;;;4978869;28;20019;-83
2021/12/28 07:05:33;;;;;;;1.58;1.10;;;;;;;;;;4980742;28;20023;-83
2021/12/28 07:07:59;;;;;;;1.10;1.00;;;;;;;;;;4980702;28;20040;-83
2021/12/28 07:10:25;;;;;;;0.85;0.80;;;;;;;;;;4979908;28;20027;-83
2021/12/28 07:12:51;;;;;;;3.42;0.93;;;;;;;;;;4980597;28;20031;-84
2021/12/28 07:15:18;;;;;;;2.55;1.08;;;;;;;;;;4978872;28;20479;-83
2021/12/28 07:17:44;;;;;;;1.90;0.95;;;;;;;;;;4980386;28;20058;-83
2021/12/28 07:20:10;;;;;;;1.10;0.90;;;;;;;;;;4978854;28;20031;-82
2021/12/28 07:22:36;;;;;;;3.60;1.20;;;;;;;;;;4980781;28;20085;-84
2021/12/28 07:25:03;;;;;;;1.98;0.90;;;;;;;;;;4979948;28;20033;-85
2021/12/28 07:27:29;;;;;;;1.40;1.00;;;;;;;;;;4979108;28;20023;-85
2021/12/28 07:29:55;;;;;;;2.55;0.85;;;;;;;;;;4982027;28;20097;-84
2021/12/28 07:32:21;;;;;;;1.30;1.00;;;;;;;;;;4999200;28;20062;-84
2021/12/28 07:34:47;;;;;;;2.22;0.90;;;;;;;;;;4998321;28;20030;-85
2021/12/28 07:37:13;;;;;;;2.72;1.10;;;;;;;;;;4984133;28;20049;-83
2021/12/28 07:39:39;;;;;;;3.10;1.00;;;;;;;;;;4980873;28;20045;-82
2021/12/28 07:42:05;;;;;;;1.25;0.80;;;;;;;;;;4980841;28;20662;-83
2021/12/28 07:44:31;;;;;;;2.55;1.00;;;;;;;;;;4983206;28;20099;-82
2021/12/28 07:46:58;;;;;;;3.95;1.10;;;;;;;;;;4998649;28;20019;-83
2021/12/28 07:49:24;;;;;;;1.58;0.77;;;;;;;;;;4997422;28;20026;-82
2021/12/28 07:51:50;;;;;;;0.70;0.70;;;;;;;;;;4994026;28;20042;-82
2021/12/28 07:54:16;;;;;;;2.30;0.93;;;;;;;;;;4979332;28;20054;-81
2021/12/28 07:56:42;;;;;;;0.88;0.80;;;;;;;;;;4978126;28;20122;-84
2021/12/28 07:59:08;;;;;;;0.60;0.60;;;;;;;;;;4980142;28;20023;-84
2021/12/28 08:01:34;;;;;;;2.78;1.10;;;;;;;;;;4978420;28;20023;-83
2021/12/28 08:04:00;;;;;;;1.65;0.75;;;;;;;;;;4979415;28;20034;-83
2021/12/28 08:06:26;;;;;;;0.60;0.60;;;;;;;;;;4980320;28;20027;-84
2021/12/28 08:08:52;;;;;;;0.60;0.60;;;;;;;;;;4978607;28;20030;-84
2021/12/28 08:11:18;;;;;;;0.70;0.70;;;;;;;;;;4977637;28;20058;-84
2021/12/28 08:13:44;;;;;;;1.67;0.70;;;;;;;;;;4979419;28;20027;-84
2021/12/28 08:16:11;;;;;;;4.47;0.80;;;;;;;;;;4977100;28;20046;-83
2021/12/28 08:18:37;;;;;;;2.63;0.70;;;;;;;;;;4979189;28;20059;-84
2021/12/28 08:21:03;;;;;;;0.60;0.60;;;;;;;;;;4976587;28;20027;-83
2021/12/28 08:23:29;;;;;;;0.60;0.60;;;;;;;;;;4977847;28;20106;-84
2021/12/28 08:25:55;;;;;;;1.75;0.75;;;;;;;;;;4977525;28;20050;-83
2021/12/28 08:28:21;;;;;;;0.80;0.70;;;;;;;;;;4976536;28;20054;-84
2021/12/28 08:30:47;;;;;;;0.50;0.50;;;;;;;;;;4976943;28;20038;-84
2021/12/28 08:33:13;;;;;;;0.68;0.68;;;;;;;;;;4980849;28;20026;-84
2021/12/28 08:35:40;;;;;;;0.50;0.50;;;;;;;;;;4987170;28;20026;-84
2021/12/28 08:38:11;;;;;;;0.70;0.70;;;;;;;;;;4984429;28;20030;-85
2021/12/28 08:40:37;;;;;;;3.10;0.97;;;;;;;;;;4983874;28;20054;-84
2021/12/28 08:43:04;;;;;;;1.00;0.98;;;;;;;;;;4976910;28;20259;-85
2021/12/28 08:45:30;;;;;;;2.22;0.80;;;;;;;;;;4978031;28;20406;-84
2021/12/28 08:47:56;;;;;;;1.00;0.90;;;;;;;;;;4977934;28;20027;-84
2021/12/28 08:50:22;;;;;;;0.80;0.80;;;;;;;;;;4976769;28;20054;-84
2021/12/28 08:52:49;;;;;;;1.00;0.90;;;;;;;;;;4978306;28;20046;-84
2021/12/28 08:55:15;;;;;;;0.95;0.95;;;;;;;;;;4987815;28;20080;-82
2021/12/28 08:57:42;;;;;;;1.20;1.10;;;;;;;;;;4985359;28;20031;-83
2021/12/28 09:00:10;;;;;;;1.20;1.10;;;;;;;;;;4980593;28;20023;-85
2021/12/28 09:02:36;;;;;;;1.50;1.40;;;;;;;;;;4977936;28;20564;-83
2021/12/28 09:05:02;;;;;;;1.60;1.50;;;;;;;;;;4975918;28;20161;-82
2021/12/28 09:07:28;;;;;;;2.63;1.70;;;;;;;;;;4977077;28;20030;-84
2021/12/28 09:09:55;;;;;;;1.88;1.77;;;;;;;;;;4978820;28;20026;-84
2021/12/28 09:12:22;;;;;;;1.65;1.45;;;;;;;;;;4975863;28;20034;-83
2021/12/28 09:15:04;;;;;;;3.55;1.50;;;;;;;;;;4977853;28;20041;-83
2021/12/28 09:17:30;;;;;;;1.45;1.35;;;;;;;;;;4977620;28;20554;-83
2021/12/28 09:20:45;;;;;;;1.65;1.35;;;;;;;;;;4978963;28;20467;-83
2021/12/28 09:23:46;;;;;;;1.95;1.20;;;;;;;;;;4980221;23;20202;-83
2021/12/28 09:26:12;;;;;;;1.73;1.10;;;;;;;;;;4975684;28;20023;-83
2021/12/28 09:29:08;;;;;;;1.40;1.10;;;;;;;;;;4978086;28;20487;-82
2021/12/28 09:38:09;;;;;;;3.42;1.30;;;;;;;;;;4957013;28;20031;-82
2021/12/28 09:40:51;;;;;;;4.55;1.48;;;;;;;;;;4970596;28;20045;-83
2021/12/28 09:43:20;;;;;;;1.88;1.50;;;;;;;;;;4975366;28;20027;-83
2021/12/28 09:46:12;;;;;;;3.17;1.50;;;;;;;;;;4976588;28;20510;-83
2021/12/28 09:48:53;;;;;;;2.67;1.58;;;;;;;;;;4975458;28;20090;-83
2021/12/28 09:51:42;;;;;;;5.57;2.47;;;;;;;;;;4978219;28;20089;-83
2021/12/28 09:54:34;;;;;;;2.00;1.80;;;;;;;;;;4972665;28;20035;-85
2021/12/28 09:57:01;;;;;;;5.05;2.05;;;;;;;;;;4975268;28;20030;-83
2021/12/28 10:02:43;;;;;;;2.33;1.83;;;;;;;;;;4946225;28;20513;-82
2021/12/28 10:05:35;;;;;;;4.05;2.15;;;;;;;;;;4975391;28;20085;-82
2021/12/28 10:08:07;;;;;;;3.03;1.17;;;;;;;;;;4975149;28;20053;-82
2021/12/28 10:10:37;;;;;;;2.30;2.08;;;;;;;;;;4967631;28;20031;-83
2021/12/28 10:13:16;;;;;;;2.10;1.70;;;;;;;;;;4958004;29;20035;-83
2021/12/28 10:15:46;;;;;;;2.58;1.60;;;;;;;;;;4956111;29;20131;-83
2021/12/28 10:19:19;;;;;;;1.90;1.58;;;;;;;;;;4953239;29;20031;-83
2021/12/28 10:21:26;;;;;;;1.02;1.00;;;;;;;;;;4951866;28;20039;-83
2021/12/28 10:23:56;;;;;;;3.03;1.20;;;;;;;;;;4956782;29;20035;-83
2021/12/28 10:26:22;;;;;;;0.98;0.98;;;;;;;;;;4959090;29;20050;-84
2021/12/28 10:28:49;;;;;;;2.40;0.90;;;;;;;;;;4959725;29;20498;-83
2021/12/28 10:31:19;;;;;;;2.03;0.80;;;;;;;;;;4975989;28;20027;-84
2021/12/28 10:33:45;;;;;;;3.28;1.95;;;;;;;;;;4977306;28;20027;-84
2021/12/28 10:36:13;;;;;;;2.83;1.42;;;;;;;;;;4977323;28;20035;-83
2021/12/28 10:38:55;;;;;;;3.08;1.00;;;;;;;;;;4963364;28;20610;-83
2021/12/28 10:41:22;;;;;;;0.88;0.85;;;;;;;;;;4955477;28;20126;-83
2021/12/28 10:43:53;;;;;;;1.00;0.80;;;;;;;;;;4957642;29;20214;-84
2021/12/28 10:46:30;;;;;;;4.60;1.13;;;;;;;;;;4959583;28;20043;-83
2021/12/28 10:49:15;;;;;;;2.72;1.17;;;;;;;;;;4960167;29;20070;-84
2021/12/28 10:51:43;;;;;;;1.83;0.98;;;;;;;;;;4958701;28;20119;-83
2021/12/28 10:54:22;;;;;;;1.60;1.20;;;;;;;;;;4961769;28;20027;-83
2021/12/28 10:56:59;;;;;;;3.20;1.35;;;;;;;;;;4959249;29;20514;-82
2021/12/28 10:59:26;;;;;;;3.22;1.30;;;;;;;;;;4960884;28;20016;-83
2021/12/28 11:01:52;;;;;;;2.33;1.23;;;;;;;;;;4961575;28;20031;-82
2021/12/28 11:04:21;;;;;;;1.58;0.90;;;;;;;;;;4959922;29;20020;-82
2021/12/28 11:06:53;;;;;;;1.58;1.10;;;;;;;;;;4962438;29;20535;-84
2021/12/28 11:09:20;;;;;;;3.85;1.15;;;;;;;;;;4960436;29;20032;-84
2021/12/28 11:11:47;;;;;;;1.08;0.98;;;;;;;;;;4961996;28;20054;-85
2021/12/28 11:14:14;;;;;;;2.67;0.98;;;;;;;;;;4969104;28;20011;-83
2021/12/28 11:16:41;;;;;;;1.73;0.85;;;;;;;;;;4972313;28;20043;-85
2021/12/28 11:19:08;;;;;;;3.17;0.90;;;;;;;;;;4966720;29;20026;-84
2021/12/28 11:21:39;;;;;;;6.85;0.80;;;;;;;;;;4966163;29;20046;-85
2021/12/28 11:24:07;;;;;;;5.13;0.80;;;;;;;;;;4965817;29;20083;-82
2021/12/28 11:26:37;;;;;;;5.88;1.08;;;;;;;;;;4966617;28;20030;-85
2021/12/28 11:29:09;;;;;;;6.60;0.90;;;;;;;;;;4966240;28;20071;-84
2021/12/28 11:31:41;;;;;;;1.70;0.68;;;;;;;;;;4985921;28;20058;-83
2021/12/28 11:34:31;;;;;;;5.93;0.73;;;;;;;;;;4983355;28;20032;-83
2021/12/28 11:36:59;;;;;;;1.47;0.87;;;;;;;;;;4981834;28;20105;-85
2021/12/28 11:39:27;;;;;;;2.60;0.70;;;;;;;;;;4981187;28;20262;-83
2021/12/28 11:41:54;;;;;;;1.00;0.57;;;;;;;;;;4985717;28;20504;-82
2021/12/28 11:44:21;;;;;;;0.98;0.65;;;;;;;;;;4988278;28;20030;-84
2021/12/28 11:50:24;;;;;;;0.95;0.70;;;;;;;;;;4980872;28;20029;-82
2021/12/28 11:52:52;;;;;;;1.05;0.70;;;;;;;;;;4980659;28;20099;-83
2021/12/28 11:55:31;;;;;;;1.45;0.80;;;;;;;;;;4981498;28;20046;-83
2021/12/28 11:58:13;;;;;;;3.83;0.88;;;;;;;;;;4978489;28;20085;-83
2021/12/28 12:00:51;;;;;;;2.13;1.08;;;;;;;;;;4981432;28;20042;-83
2021/12/28 12:03:43;;;;;;;5.45;1.10;;;;;;;;;;4980325;28;20041;-83
2021/12/28 12:06:09;;;;;;;5.22;1.00;;;;;;;;;;4979427;28;20038;-83
2021/12/28 12:12:17;;;;;;;10.20;1.92;;;;;;;;;;4969906;28;20030;-83
2021/12/28 12:14:52;;;;;;;6.80;1.40;;;;;;;;;;4970189;28;20097;-83
2021/12/28 12:17:45;;;;;;;10.80;1.30;;;;;;;;;;4961336;28;20031;-83
2021/12/28 12:20:14;;;;;;;1.48;0.80;;;;;;;;;;4955915;28;20057;-83
2021/12/28 12:22:55;;;;;;;8.82;1.50;;;;;;;;;;4959205;29;20034;-83
2021/12/28 12:25:37;;;;;;;7.20;1.80;;;;;;;;;;4958237;29;20028;-83
2021/12/28 12:28:32;;;;;;;9.45;1.23;;;;;;;;;;4959391;28;20038;-83
2021/12/28 12:31:02;;;;;;;5.93;1.00;;;;;;;;;;4973417;28;20459;-84
2021/12/28 12:33:56;;;;;;;5.60;1.45;;;;;;;;;;4980174;28;20106;-84
2021/12/28 12:36:33;;;;;;;6.65;1.23;;;;;;;;;;4976882;28;20545;-84
2021/12/28 12:38:59;;;;;;;5.40;1.50;;;;;;;;;;4978220;28;20067;-84
2021/12/28 12:41:48;;;;;;;4.05;1.42;;;;;;;;;;4966357;28;20042;-83
2021/12/28 12:44:17;;;;;;;8.38;1.55;;;;;;;;;;4939804;29;20023;-83
2021/12/28 12:46:47;;;;;;;6.63;1.33;;;;;;;;;;4939001;29;20036;-84
2021/12/28 12:49:13;;;;;;;8.38;1.90;;;;;;;;;;4939981;29;20035;-84
2021/12/28 12:55:05;;;;;;;3.67;1.58;;;;;;;;;;4940499;29;20082;-82
2021/12/28 12:57:53;;;;;;;4.15;1.10;;;;;;;;;;4953730;29;20035;-82
2021/12/28 13:03:43;;;;;;;10.50;1.63;;;;;;;;;;5333369;22;20069;-83
2021/12/28 13:06:29;;;;;;;3.80;1.38;;;;;;;;;;4999669;28;20487;-81
2021/12/28 13:09:23;;;;;;;7.70;1.58;;;;;;;;;;4998267;28;20113;-83
2021/12/28 13:11:49;;;;;;;4.07;1.40;;;;;;;;;;4997250;23;20105;-82
2021/12/28 13:14:39;;;;;;;5.57;1.10;;;;;;;;;;4999025;28;20026;-83
2021/12/28 13:23:09;;;;;;;4.75;1.20;;;;;;;;;;4960541;28;20109;-82
2021/12/28 13:25:55;;;;;;;1.02;0.85;;;;;;;;;;4958749;28;20055;-82
2021/12/28 13:28:24;;;;;;;1.08;0.82;;;;;;;;;;4958925;28;20027;-83
2021/12/28 13:31:02;;;;;;;1.25;0.60;;;;;;;;;;4970604;28;20030;-83
2021/12/28 13:34:13;;;;;;;4.75;0.60;;;;;;;;;;4993297;28;20035;-83
2021/12/28 13:37:26;;;;;;;;;;;;;;;;;;;;;
2021/12/28 13:40:17;;;;;;;;;;;;;;;;;;;;;
2021/12/28 13:43:02;;;;;;;3.20;0.70;;;;;;;;;;4978327;28;20126;-83
2021/12/28 13:45:57;;;;;;;4.93;0.80;;;;;;;;;;4993086;28;20029;-82
2021/12/28 13:48:26;;;;;;;3.70;0.77;;;;;;;;;;4977481;28;20030;-83
2021/12/28 13:50:52;;;;;;;8.13;1.30;;;;;;;;;;4977437;28;20022;-82
2021/12/28 13:53:54;;;;;;;7.22;1.30;;;;;;;;;;4979162;28;20022;-85
2021/12/28 13:56:43;;;;;;;5.47;1.30;;;;;;;;;;4978443;28;20027;-83
2021/12/28 13:59:11;;;;;;;;;;;;;;;;;;4979378;28;20031;-84
2021/12/28 14:01:41;;;;;;;6.90;1.42;;;;;;;;;;4978251;28;20021;-83
2021/12/28 14:04:27;;;;;;;6.53;1.30;;;;;;;;;;4978984;28;20387;-83
2021/12/28 14:06:57;;;;;;;15.75;1.73;;;;;;;;;;4979894;28;20391;-83
2021/12/28 14:09:24;;;;;;;5.00;1.10;;;;;;;;;;4979923;28;20043;-83
2021/12/28 14:11:53;;;;;;;13.15;1.30;;;;;;;;;;4980565;28;20038;-84
2021/12/28 14:14:22;;;;;;;4.93;1.08;;;;;;;;;;4977133;28;20475;-85
2021/12/28 14:17:00;;;;;;;12.15;2.00;;;;;;;;;;4978365;28;20023;-84
2021/12/28 14:19:28;;;;;;;4.95;1.48;;;;;;;;;;4992946;28;20090;-83
2021/12/28 14:21:54;;;;;;;11.15;1.77;;;;;;;;;;4980828;28;20037;-83
2021/12/28 14:28:04;;;;;;;;;;;;;;;;;;;;;
2021/12/28 14:31:15;;;;;;;7.55;1.30;;;;;;;;;;4965585;28;20130;-83
2021/12/28 14:34:09;;;;;;;6.00;1.27;;;;;;;;;;4980197;28;20116;-82
2021/12/28 14:36:39;;;;;;;6.70;1.27;;;;;;;;;;4996060;28;20030;-84
2021/12/28 14:39:31;;;;;;;12.35;2.15;;;;;;;;;;4981165;28;20027;-84
2021/12/28 14:42:06;;;;;;;9.05;1.35;;;;;;;;;;4997124;28;20502;-83
2021/12/28 14:44:32;;;;;;;18.65;2.70;;;;;;;;;;4991565;28;20105;-84
2021/12/28 14:47:01;;;;;;;8.40;1.63;;;;;;;;;;4979136;28;20023;-85
2021/12/28 14:49:31;;;;;;;10.18;1.60;;;;;;;;;;4979259;28;20110;-83
2021/12/28 14:52:10;;;;;;;13.95;1.77;;;;;;;;;;4981383;28;20074;-86
2021/12/28 14:54:36;;;;;;;8.63;1.35;;;;;;;;;;4994565;28;20026;-82
2021/12/28 14:57:02;;;;;;;10.45;1.90;;;;;;;;;;4979494;28;20487;-85
2021/12/28 14:59:28;;;;;;;13.70;2.10;;;;;;;;;;4979796;28;20055;-85
2021/12/28 15:01:56;;;;;;;14.40;1.80;;;;;;;;;;4979419;28;20019;-84
2021/12/28 15:04:22;;;;;;;8.63;1.63;;;;;;;;;;4979416;28;20034;-84
2021/12/28 15:06:49;;;;;;;8.50;1.60;;;;;;;;;;4980830;28;20022;-84
2021/12/28 15:09:25;;;;;;;16.52;2.00;;;;;;;;;;4978813;28;20023;-84
2021/12/28 15:11:51;;;;;;;14.52;2.50;;;;;;;;;;4979936;28;20023;-83
2021/12/28 15:14:18;;;;;;;11.82;1.98;;;;;;;;;;4994925;28;20051;-85
2021/12/28 15:16:44;;;;;;;18.08;3.08;;;;;;;;;;4989196;28;20019;-84
2021/12/28 15:19:19;;;;;;;13.50;2.08;;;;;;;;;;4994584;28;20023;-84
2021/12/28 15:21:45;;;;;;;15.05;2.25;;;;;;;;;;4986209;28;20075;-84
2021/12/28 15:24:11;;;;;;;13.93;2.20;;;;;;;;;;4978357;28;20081;-85
2021/12/28 15:26:37;;;;;;;19.77;2.85;;;;;;;;;;4980281;28;20018;-85
2021/12/28 15:29:03;;;;;;;19.55;2.67;;;;;;;;;;4979246;28;20030;-85
2021/12/28 15:31:29;;;;;;;9.23;1.90;;;;;;;;;;4977208;28;20073;-85
2021/12/28 15:33:55;;;;;;;13.80;2.72;;;;;;;;;;4981376;28;20019;-84
2021/12/28 15:36:21;;;;;;;15.55;1.70;;;;;;;;;;4979982;28;20022;-85
2021/12/28 15:38:47;;;;;;;19.77;2.20;;;;;;;;;;4993667;28;20033;-84
2021/12/28 15:41:13;;;;;;;10.55;2.30;;;;;;;;;;4972137;28;20011;-83
2021/12/28 15:43:41;;;;;;;29.00;2.85;;;;;;;;;;4978210;28;20061;-84
2021/12/28 15:46:09;;;;;;;10.27;2.38;;;;;;;;;;4977400;28;20019;-84
2021/12/28 15:48:36;;;;;;;18.67;2.78;;;;;;;;;;4976762;28;20081;-84
2021/12/28 15:51:02;;;;;;;21.42;2.42;;;;;;;;;;4993494;28;20038;-84
2021/12/28 15:53:28;;;;;;;13.55;2.33;;;;;;;;;;4977681;28;20026;-83
2021/12/28 15:55:54;;;;;;;7.05;2.08;;;;;;;;;;4993994;28;20030;-85
2021/12/28 15:58:20;;;;;;;15.82;2.88;;;;;;;;;;4976482;28;20069;-84
2021/12/28 16:00:46;;;;;;;22.02;3.60;;;;;;;;;;4979446;28;20389;-85
2021/12/28 16:03:12;;;;;;;17.95;2.67;;;;;;;;;;4979748;28;20015;-85
2021/12/28 16:05:38;;;;;;;9.35;1.58;;;;;;;;;;4978278;28;20022;-84
2021/12/28 16:08:04;;;;;;;14.60;2.78;;;;;;;;;;4978912;28;20053;-84
2021/12/28 16:10:30;;;;;;;15.13;2.55;;;;;;;;;;4977410;28;20038;-84
2021/12/28 16:12:56;;;;;;;11.95;2.15;;;;;;;;;;4979915;28;20115;-85
2021/12/28 16:15:22;;;;;;;14.73;3.70;;;;;;;;;;4979385;28;20031;-84
2021/12/28 16:17:50;;;;;;;16.88;3.17;;;;;;;;;;4993498;28;20498;-85
2021/12/28 16:20:16;;;;;;;16.55;3.20;;;;;;;;;;4978044;28;20023;-83
2021/12/28 16:22:43;;;;;;;12.88;2.88;;;;;;;;;;4976864;28;20037;-82
2021/12/28 16:25:09;;;;;;;18.77;2.78;;;;;;;;;;4991670;28;20047;-82
2021/12/28 16:27:35;;;;;;;19.35;2.88;;;;;;;;;;4976342;28;20029;-82